sensor_id;sensor_type;location;lat;lon;timestamp;temperature;humidity
11136;DHT22;5622;50.840;4.948;2023-11-21T00:00:32;9.30;99.90
11136;DHT22;5622;50.840;4.948;2023-11-21T00:03:16;9.30;99.90
11136;DHT22;5622;50.840;4.948;2023-11-21T00:05:57;9.30;99.90
11136;DHT22;5622;50.840;4.948;2023-11-21T00:08:39;9.30;99.90
11136;DHT22;5622;50.840;4.948;2023-11-21T00:11:23;9.30;99.90
11136;DHT22;5622;50.840;4.948;2023-11-21T00:17:02;9.40;99.90
11136;DHT22;5622;50.840;4.948;2023-11-21T00:19:36;9.40;99.90
11136;DHT22;5622;50.840;4.948;2023-11-21T00:22:03;9.40;99.90
11136;DHT22;5622;50.840;4.948;2023-11-21T00:24:46;9.40;99.90
11136;DHT22;5622;50.840;4.948;2023-11-21T00:27:16;9.40;99.90
11136;DHT22;5622;50.840;4.948;2023-11-21T00:29:53;9.40;99.90
11136;DHT22;5622;50.840;4.948;2023-11-21T00:32:42;9.40;99.90
11136;DHT22;5622;50.840;4.948;2023-11-21T00:35:11;9.40;99.90
11136;DHT22;5622;50.840;4.948;2023-11-21T00:37:40;9.80;99.90
11136;DHT22;5622;50.840;4.948;2023-11-21T00:40:12;9.50;99.90
11136;DHT22;5622;50.840;4.948;2023-11-21T00:42:44;9.30;99.90
11136;DHT22;5622;50.840;4.948;2023-11-21T00:45:26;9.50;99.90
11136;DHT22;5622;50.840;4.948;2023-11-21T00:47:59;9.30;99.90
11136;DHT22;5622;50.840;4.948;2023-11-21T00:50:27;9.50;99.90
11136;DHT22;5622;50.840;4.948;2023-11-21T00:53:03;9.50;99.90
11136;DHT22;5622;50.840;4.948;2023-11-21T00:55:33;9.40;99.90
11136;DHT22;5622;50.840;4.948;2023-11-21T00:58:02;9.30;99.90
11136;DHT22;5622;50.840;4.948;2023-11-21T01:00:40;9.60;99.90
11136;DHT22;5622;50.840;4.948;2023-11-21T01:03:31;9.50;99.90
11136;DHT22;5622;50.840;4.948;2023-11-21T01:06:15;9.50;99.90
11136;DHT22;5622;50.840;4.948;2023-11-21T01:08:44;9.50;99.90
11136;DHT22;5622;50.840;4.948;2023-11-21T01:11:16;9.40;99.90
11136;DHT22;5622;50.840;4.948;2023-11-21T01:13:48;9.50;99.90
11136;DHT22;5622;50.840;4.948;2023-11-21T01:16:15;9.50;99.90
11136;DHT22;5622;50.840;4.948;2023-11-21T01:22:23;9.50;99.90
11136;DHT22;5622;50.840;4.948;2023-11-21T01:25:01;9.50;99.90
11136;DHT22;5622;50.840;4.948;2023-11-21T01:27:34;9.40;99.90
11136;DHT22;5622;50.840;4.948;2023-11-21T01:30:03;9.40;99.90
11136;DHT22;5622;50.840;4.948;2023-11-21T01:32:33;9.40;99.90
11136;DHT22;5622;50.840;4.948;2023-11-21T01:35:14;9.00;99.90
11136;DHT22;5622;50.840;4.948;2023-11-21T01:37:47;9.30;99.90
11136;DHT22;5622;50.840;4.948;2023-11-21T01:40:28;9.20;99.90
11136;DHT22;5622;50.840;4.948;2023-11-21T01:43:15;9.20;99.90
11136;DHT22;5622;50.840;4.948;2023-11-21T02:12:30;8.60;99.90
11136;DHT22;5622;50.840;4.948;2023-11-21T02:15:10;8.70;99.90
11136;DHT22;5622;50.840;4.948;2023-11-21T02:17:46;8.70;99.90
11136;DHT22;5622;50.840;4.948;2023-11-21T02:20:18;8.70;99.90
11136;DHT22;5622;50.840;4.948;2023-11-21T02:22:55;8.70;99.90
11136;DHT22;5622;50.840;4.948;2023-11-21T02:25:32;8.70;99.90
11136;DHT22;5622;50.840;4.948;2023-11-21T02:28:13;8.70;99.90
11136;DHT22;5622;50.840;4.948;2023-11-21T02:30:58;8.60;99.90
11136;DHT22;5622;50.840;4.948;2023-11-21T02:33:28;8.50;99.90
11136;DHT22;5622;50.840;4.948;2023-11-21T02:36:00;8.70;99.90
11136;DHT22;5622;50.840;4.948;2023-11-21T02:41:43;8.70;99.90
11136;DHT22;5622;50.840;4.948;2023-11-21T02:44:19;8.70;99.90
11136;DHT22;5622;50.840;4.948;2023-11-21T02:47:00;8.70;99.90
11136;DHT22;5622;50.840;4.948;2023-11-21T02:49:42;8.70;99.90
11136;DHT22;5622;50.840;4.948;2023-11-21T02:52:10;8.80;99.90
11136;DHT22;5622;50.840;4.948;2023-11-21T02:54:38;8.80;99.90
11136;DHT22;5622;50.840;4.948;2023-11-21T02:57:21;8.80;99.90
11136;DHT22;5622;50.840;4.948;2023-11-21T02:59:49;8.80;99.90
11136;DHT22;5622;50.840;4.948;2023-11-21T03:02:30;8.80;99.90
11136;DHT22;5622;50.840;4.948;2023-11-21T03:05:03;8.70;99.90
11136;DHT22;5622;50.840;4.948;2023-11-21T03:07:32;8.80;99.90
11136;DHT22;5622;50.840;4.948;2023-11-21T03:10:14;8.70;99.90
11136;DHT22;5622;50.840;4.948;2023-11-21T03:15:56;8.60;99.90
11136;DHT22;5622;50.840;4.948;2023-11-21T03:18:39;8.60;99.90
11136;DHT22;5622;50.840;4.948;2023-11-21T03:21:10;8.40;99.90
11136;DHT22;5622;50.840;4.948;2023-11-21T03:23:38;8.50;99.90
11136;DHT22;5622;50.840;4.948;2023-11-21T03:26:19;8.50;99.90
11136;DHT22;5622;50.840;4.948;2023-11-21T03:28:48;8.50;99.90
11136;DHT22;5622;50.840;4.948;2023-11-21T03:31:24;8.50;99.90
11136;DHT22;5622;50.840;4.948;2023-11-21T03:33:54;8.40;99.90
11136;DHT22;5622;50.840;4.948;2023-11-21T03:36:22;8.40;99.90
11136;DHT22;5622;50.840;4.948;2023-11-21T03:38:54;8.50;99.90
11136;DHT22;5622;50.840;4.948;2023-11-21T03:41:22;8.50;99.90
11136;DHT22;5622;50.840;4.948;2023-11-21T03:43:54;8.50;99.90
11136;DHT22;5622;50.840;4.948;2023-11-21T03:46:39;8.50;99.90
11136;DHT22;5622;50.840;4.948;2023-11-21T03:49:15;8.40;99.90
11136;DHT22;5622;50.840;4.948;2023-11-21T03:51:46;8.40;99.90
11136;DHT22;5622;50.840;4.948;2023-11-21T03:54:24;8.40;99.90
11136;DHT22;5622;50.840;4.948;2023-11-21T03:57:05;8.30;99.90
11136;DHT22;5622;50.840;4.948;2023-11-21T03:59:35;8.30;99.90
11136;DHT22;5622;50.840;4.948;2023-11-21T04:02:09;8.10;99.90
11136;DHT22;5622;50.840;4.948;2023-11-21T04:04:50;8.10;99.90
11136;DHT22;5622;50.840;4.948;2023-11-21T04:07:25;8.20;99.90
11136;DHT22;5622;50.840;4.948;2023-11-21T04:10:03;8.20;99.90
11136;DHT22;5622;50.840;4.948;2023-11-21T04:12:35;8.10;99.90
11136;DHT22;5622;50.840;4.948;2023-11-21T04:15:08;8.10;99.90
11136;DHT22;5622;50.840;4.948;2023-11-21T04:17:46;8.10;99.90
11136;DHT22;5622;50.840;4.948;2023-11-21T04:20:16;8.20;99.90
11136;DHT22;5622;50.840;4.948;2023-11-21T04:22:46;8.10;99.90
11136;DHT22;5622;50.840;4.948;2023-11-21T04:25:27;8.20;99.90
11136;DHT22;5622;50.840;4.948;2023-11-21T04:28:08;8.10;99.90
11136;DHT22;5622;50.840;4.948;2023-11-21T04:30:50;8.20;99.90
11136;DHT22;5622;50.840;4.948;2023-11-21T04:33:51;8.20;99.90
11136;DHT22;5622;50.840;4.948;2023-11-21T04:36:33;8.20;99.90
11136;DHT22;5622;50.840;4.948;2023-11-21T04:39:04;8.20;99.90
11136;DHT22;5622;50.840;4.948;2023-11-21T04:41:32;8.30;99.90
11136;DHT22;5622;50.840;4.948;2023-11-21T04:44:15;8.30;99.90
11136;DHT22;5622;50.840;4.948;2023-11-21T04:46:43;8.30;99.90
11136;DHT22;5622;50.840;4.948;2023-11-21T04:49:15;8.30;99.90
11136;DHT22;5622;50.840;4.948;2023-11-21T04:51:56;8.20;99.90
11136;DHT22;5622;50.840;4.948;2023-11-21T04:54:37;8.30;99.90
11136;DHT22;5622;50.840;4.948;2023-11-21T04:57:07;8.40;99.90
11136;DHT22;5622;50.840;4.948;2023-11-21T04:59:44;8.40;99.90
11136;DHT22;5622;50.840;4.948;2023-11-21T05:02:27;8.40;99.90
11136;DHT22;5622;50.840;4.948;2023-11-21T05:05:10;8.30;99.90
11136;DHT22;5622;50.840;4.948;2023-11-21T05:07:51;8.30;99.90
11136;DHT22;5622;50.840;4.948;2023-11-21T05:10:21;8.40;99.90
11136;DHT22;5622;50.840;4.948;2023-11-21T05:12:53;8.40;99.90
11136;DHT22;5622;50.840;4.948;2023-11-21T05:15:28;8.40;99.90
11136;DHT22;5622;50.840;4.948;2023-11-21T05:17:59;8.40;99.90
11136;DHT22;5622;50.840;4.948;2023-11-21T05:24:04;8.40;99.90
11136;DHT22;5622;50.840;4.948;2023-11-21T05:26:46;8.40;99.90
11136;DHT22;5622;50.840;4.948;2023-11-21T05:29:28;8.40;99.90
11136;DHT22;5622;50.840;4.948;2023-11-21T05:32:10;8.50;99.90
11136;DHT22;5622;50.840;4.948;2023-11-21T05:34:55;8.50;99.90
11136;DHT22;5622;50.840;4.948;2023-11-21T05:37:37;8.50;99.90
11136;DHT22;5622;50.840;4.948;2023-11-21T05:40:22;8.50;99.90
11136;DHT22;5622;50.840;4.948;2023-11-21T05:43:04;8.50;99.90
11136;DHT22;5622;50.840;4.948;2023-11-21T05:45:35;8.60;99.90
11136;DHT22;5622;50.840;4.948;2023-11-21T05:48:04;8.60;99.90
11136;DHT22;5622;50.840;4.948;2023-11-21T05:50:32;8.60;99.90
11136;DHT22;5622;50.840;4.948;2023-11-21T05:52:59;8.60;99.90
11136;DHT22;5622;50.840;4.948;2023-11-21T05:55:30;8.60;99.90
11136;DHT22;5622;50.840;4.948;2023-11-21T05:58:01;8.60;99.90
11136;DHT22;5622;50.840;4.948;2023-11-21T06:00:30;8.70;99.90
11136;DHT22;5622;50.840;4.948;2023-11-21T06:03:00;8.60;99.90
11136;DHT22;5622;50.840;4.948;2023-11-21T06:05:27;8.70;99.90
11136;DHT22;5622;50.840;4.948;2023-11-21T06:07:58;8.70;99.90
11136;DHT22;5622;50.840;4.948;2023-11-21T06:10:32;8.70;99.90
11136;DHT22;5622;50.840;4.948;2023-11-21T06:12:59;8.70;99.90
11136;DHT22;5622;50.840;4.948;2023-11-21T06:15:36;8.80;99.90
11136;DHT22;5622;50.840;4.948;2023-11-21T06:18:05;8.80;99.90
11136;DHT22;5622;50.840;4.948;2023-11-21T06:20:37;8.60;99.90
11136;DHT22;5622;50.840;4.948;2023-11-21T06:23:21;8.80;99.90
11136;DHT22;5622;50.840;4.948;2023-11-21T06:25:52;8.90;99.90
11136;DHT22;5622;50.840;4.948;2023-11-21T06:28:19;8.80;99.90
11136;DHT22;5622;50.840;4.948;2023-11-21T06:30:46;8.70;99.90
11136;DHT22;5622;50.840;4.948;2023-11-21T06:33:15;8.70;99.90
11136;DHT22;5622;50.840;4.948;2023-11-21T06:35:47;8.60;99.90
11136;DHT22;5622;50.840;4.948;2023-11-21T06:38:19;8.60;99.90
11136;DHT22;5622;50.840;4.948;2023-11-21T06:40:46;8.60;99.90
11136;DHT22;5622;50.840;4.948;2023-11-21T06:43:15;8.60;99.90
11136;DHT22;5622;50.840;4.948;2023-11-21T06:45:43;8.60;99.90
11136;DHT22;5622;50.840;4.948;2023-11-21T06:48:10;8.60;99.90
11136;DHT22;5622;50.840;4.948;2023-11-21T06:50:43;8.60;99.90
11136;DHT22;5622;50.840;4.948;2023-11-21T06:53:20;8.60;99.90
11136;DHT22;5622;50.840;4.948;2023-11-21T06:56:14;8.60;99.90
11136;DHT22;5622;50.840;4.948;2023-11-21T06:58:43;8.70;99.90
11136;DHT22;5622;50.840;4.948;2023-11-21T07:01:11;8.70;99.90
11136;DHT22;5622;50.840;4.948;2023-11-21T07:03:38;8.70;99.90
11136;DHT22;5622;50.840;4.948;2023-11-21T07:06:08;8.70;99.90
11136;DHT22;5622;50.840;4.948;2023-11-21T07:08:37;8.70;99.90
11136;DHT22;5622;50.840;4.948;2023-11-21T07:11:20;8.80;99.90
11136;DHT22;5622;50.840;4.948;2023-11-21T07:13:52;8.80;99.90
11136;DHT22;5622;50.840;4.948;2023-11-21T07:16:20;8.80;99.90
11136;DHT22;5622;50.840;4.948;2023-11-21T07:18:48;8.90;99.90
11136;DHT22;5622;50.840;4.948;2023-11-21T07:21:15;8.90;99.90
11136;DHT22;5622;50.840;4.948;2023-11-21T07:23:48;8.90;99.90
11136;DHT22;5622;50.840;4.948;2023-11-21T07:26:17;8.90;99.90
11136;DHT22;5622;50.840;4.948;2023-11-21T07:28:49;9.00;99.90
11136;DHT22;5622;50.840;4.948;2023-11-21T07:31:17;9.00;99.90
11136;DHT22;5622;50.840;4.948;2023-11-21T07:33:44;9.00;99.90
11136;DHT22;5622;50.840;4.948;2023-11-21T07:36:13;9.00;99.90
11136;DHT22;5622;50.840;4.948;2023-11-21T07:38:40;8.90;99.90
11136;DHT22;5622;50.840;4.948;2023-11-21T07:41:07;8.90;99.90
11136;DHT22;5622;50.840;4.948;2023-11-21T07:43:34;8.90;99.90
11136;DHT22;5622;50.840;4.948;2023-11-21T07:46:02;9.00;99.90
11136;DHT22;5622;50.840;4.948;2023-11-21T07:48:34;9.00;99.90
11136;DHT22;5622;50.840;4.948;2023-11-21T07:51:02;9.00;99.90
11136;DHT22;5622;50.840;4.948;2023-11-21T07:53:30;9.10;99.90
11136;DHT22;5622;50.840;4.948;2023-11-21T07:55:58;9.10;99.90
11136;DHT22;5622;50.840;4.948;2023-11-21T07:58:27;9.10;99.90
11136;DHT22;5622;50.840;4.948;2023-11-21T08:00:56;9.10;99.90
11136;DHT22;5622;50.840;4.948;2023-11-21T08:03:23;9.10;99.90
11136;DHT22;5622;50.840;4.948;2023-11-21T08:05:53;9.10;99.90
11136;DHT22;5622;50.840;4.948;2023-11-21T08:08:20;9.20;99.90
11136;DHT22;5622;50.840;4.948;2023-11-21T08:10:48;9.10;99.90
11136;DHT22;5622;50.840;4.948;2023-11-21T08:13:27;9.30;99.90
11136;DHT22;5622;50.840;4.948;2023-11-21T08:15:55;9.30;99.90
11136;DHT22;5622;50.840;4.948;2023-11-21T08:18:25;9.30;99.90
11136;DHT22;5622;50.840;4.948;2023-11-21T08:20:54;9.30;99.90
11136;DHT22;5622;50.840;4.948;2023-11-21T08:23:21;9.30;99.90
11136;DHT22;5622;50.840;4.948;2023-11-21T08:25:51;9.40;99.90
11136;DHT22;5622;50.840;4.948;2023-11-21T08:28:20;9.40;99.90
11136;DHT22;5622;50.840;4.948;2023-11-21T08:30:47;9.40;99.90
11136;DHT22;5622;50.840;4.948;2023-11-21T08:33:15;9.40;99.90
11136;DHT22;5622;50.840;4.948;2023-11-21T08:35:46;9.50;99.90
11136;DHT22;5622;50.840;4.948;2023-11-21T08:38:15;9.50;99.90
11136;DHT22;5622;50.840;4.948;2023-11-21T08:40:42;9.50;99.90
11136;DHT22;5622;50.840;4.948;2023-11-21T08:43:10;9.60;99.90
11136;DHT22;5622;50.840;4.948;2023-11-21T08:45:37;9.60;99.90
11136;DHT22;5622;50.840;4.948;2023-11-21T08:48:05;9.60;99.90
11136;DHT22;5622;50.840;4.948;2023-11-21T08:50:32;9.60;99.90
11136;DHT22;5622;50.840;4.948;2023-11-21T08:53:00;9.60;99.90
11136;DHT22;5622;50.840;4.948;2023-11-21T08:55:30;9.70;99.90
11136;DHT22;5622;50.840;4.948;2023-11-21T08:58:04;9.70;99.90
11136;DHT22;5622;50.840;4.948;2023-11-21T09:00:32;9.80;99.90
11136;DHT22;5622;50.840;4.948;2023-11-21T09:03:01;9.80;99.90
11136;DHT22;5622;50.840;4.948;2023-11-21T09:05:32;9.80;99.90
11136;DHT22;5622;50.840;4.948;2023-11-21T09:07:59;9.80;99.90
11136;DHT22;5622;50.840;4.948;2023-11-21T09:10:27;9.90;99.90
11136;DHT22;5622;50.840;4.948;2023-11-21T09:12:56;9.90;99.90
11136;DHT22;5622;50.840;4.948;2023-11-21T09:15:24;9.90;99.90
11136;DHT22;5622;50.840;4.948;2023-11-21T09:17:52;10.00;99.90
11136;DHT22;5622;50.840;4.948;2023-11-21T09:20:19;10.00;99.90
11136;DHT22;5622;50.840;4.948;2023-11-21T09:22:48;10.00;99.90
11136;DHT22;5622;50.840;4.948;2023-11-21T09:25:17;10.00;99.90
11136;DHT22;5622;50.840;4.948;2023-11-21T09:27:47;10.10;99.90
11136;DHT22;5622;50.840;4.948;2023-11-21T09:30:14;10.10;99.90
11136;DHT22;5622;50.840;4.948;2023-11-21T09:32:42;10.10;99.90
11136;DHT22;5622;50.840;4.948;2023-11-21T09:35:14;10.30;99.90
11136;DHT22;5622;50.840;4.948;2023-11-21T09:37:43;10.20;99.90
11136;DHT22;5622;50.840;4.948;2023-11-21T09:40:12;10.30;99.90
11136;DHT22;5622;50.840;4.948;2023-11-21T09:42:49;10.30;99.90
11136;DHT22;5622;50.840;4.948;2023-11-21T09:45:21;10.30;99.90
11136;DHT22;5622;50.840;4.948;2023-11-21T09:47:52;10.40;99.90
11136;DHT22;5622;50.840;4.948;2023-11-21T09:50:24;10.30;99.90
11136;DHT22;5622;50.840;4.948;2023-11-21T09:52:57;10.40;99.90
11136;DHT22;5622;50.840;4.948;2023-11-21T09:55:27;10.40;99.90
11136;DHT22;5622;50.840;4.948;2023-11-21T09:57:57;10.40;99.90
11136;DHT22;5622;50.840;4.948;2023-11-21T10:00:29;10.40;99.90
11136;DHT22;5622;50.840;4.948;2023-11-21T10:02:59;10.40;99.90
11136;DHT22;5622;50.840;4.948;2023-11-21T10:05:29;10.40;99.90
11136;DHT22;5622;50.840;4.948;2023-11-21T10:08:00;10.40;99.90
11136;DHT22;5622;50.840;4.948;2023-11-21T10:10:28;10.40;99.90
11136;DHT22;5622;50.840;4.948;2023-11-21T10:13:02;10.40;99.90
11136;DHT22;5622;50.840;4.948;2023-11-21T10:15:35;10.40;99.90
11136;DHT22;5622;50.840;4.948;2023-11-21T10:18:04;10.40;99.90
11136;DHT22;5622;50.840;4.948;2023-11-21T10:20:32;10.40;99.90
11136;DHT22;5622;50.840;4.948;2023-11-21T10:23:02;10.50;99.90
11136;DHT22;5622;50.840;4.948;2023-11-21T10:25:29;10.40;99.90
11136;DHT22;5622;50.840;4.948;2023-11-21T10:28:00;10.40;99.90
11136;DHT22;5622;50.840;4.948;2023-11-21T10:30:32;10.50;99.90
11136;DHT22;5622;50.840;4.948;2023-11-21T10:33:03;10.50;99.90
11136;DHT22;5622;50.840;4.948;2023-11-21T10:35:54;10.50;99.90
11136;DHT22;5622;50.840;4.948;2023-11-21T10:38:25;10.50;99.90
11136;DHT22;5622;50.840;4.948;2023-11-21T10:40:54;10.50;99.90
11136;DHT22;5622;50.840;4.948;2023-11-21T10:43:26;10.50;99.90
11136;DHT22;5622;50.840;4.948;2023-11-21T10:45:58;10.60;99.90
11136;DHT22;5622;50.840;4.948;2023-11-21T10:48:25;10.50;99.90
11136;DHT22;5622;50.840;4.948;2023-11-21T10:50:53;10.50;99.90
11136;DHT22;5622;50.840;4.948;2023-11-21T10:53:22;10.60;99.90
11136;DHT22;5622;50.840;4.948;2023-11-21T10:55:54;10.60;99.90
11136;DHT22;5622;50.840;4.948;2023-11-21T10:58:30;10.60;99.90
11136;DHT22;5622;50.840;4.948;2023-11-21T11:00:58;10.60;99.90
11136;DHT22;5622;50.840;4.948;2023-11-21T11:03:26;10.60;99.90
11136;DHT22;5622;50.840;4.948;2023-11-21T11:05:53;10.60;99.90
11136;DHT22;5622;50.840;4.948;2023-11-21T11:08:21;10.60;99.90
11136;DHT22;5622;50.840;4.948;2023-11-21T11:10:52;10.70;99.90
11136;DHT22;5622;50.840;4.948;2023-11-21T11:13:19;10.60;99.90
11136;DHT22;5622;50.840;4.948;2023-11-21T11:15:48;10.80;99.90
11136;DHT22;5622;50.840;4.948;2023-11-21T11:18:16;10.80;99.90
11136;DHT22;5622;50.840;4.948;2023-11-21T11:20:46;10.80;99.90
11136;DHT22;5622;50.840;4.948;2023-11-21T11:23:28;10.70;99.90
11136;DHT22;5622;50.840;4.948;2023-11-21T11:26:10;10.90;99.90
11136;DHT22;5622;50.840;4.948;2023-11-21T11:28:47;10.90;99.90
11136;DHT22;5622;50.840;4.948;2023-11-21T11:31:24;10.90;99.90
11136;DHT22;5622;50.840;4.948;2023-11-21T11:34:00;10.90;99.90
11136;DHT22;5622;50.840;4.948;2023-11-21T11:36:35;10.90;99.90
11136;DHT22;5622;50.840;4.948;2023-11-21T11:39:26;10.90;99.90
11136;DHT22;5622;50.840;4.948;2023-11-21T11:41:53;10.90;99.90
11136;DHT22;5622;50.840;4.948;2023-11-21T11:44:47;10.90;99.90
11136;DHT22;5622;50.840;4.948;2023-11-21T11:47:21;10.90;99.90
11136;DHT22;5622;50.840;4.948;2023-11-21T11:50:07;10.90;99.90
11136;DHT22;5622;50.840;4.948;2023-11-21T11:52:42;10.90;99.90
11136;DHT22;5622;50.840;4.948;2023-11-21T11:55:11;10.90;99.90
11136;DHT22;5622;50.840;4.948;2023-11-21T11:57:40;10.90;99.90
11136;DHT22;5622;50.840;4.948;2023-11-21T12:00:17;10.80;99.90
11136;DHT22;5622;50.840;4.948;2023-11-21T12:02:52;10.90;99.90
11136;DHT22;5622;50.840;4.948;2023-11-21T12:05:20;10.90;99.90
11136;DHT22;5622;50.840;4.948;2023-11-21T12:07:50;10.90;99.90
11136;DHT22;5622;50.840;4.948;2023-11-21T12:10:19;10.90;99.90
11136;DHT22;5622;50.840;4.948;2023-11-21T12:12:47;10.90;99.90
11136;DHT22;5622;50.840;4.948;2023-11-21T12:15:14;10.90;99.90
11136;DHT22;5622;50.840;4.948;2023-11-21T12:17:42;10.90;99.90
11136;DHT22;5622;50.840;4.948;2023-11-21T12:20:12;10.80;99.90
11136;DHT22;5622;50.840;4.948;2023-11-21T12:22:43;10.80;99.90
11136;DHT22;5622;50.840;4.948;2023-11-21T12:25:13;10.90;99.90
11136;DHT22;5622;50.840;4.948;2023-11-21T12:27:42;10.90;99.90
11136;DHT22;5622;50.840;4.948;2023-11-21T12:30:14;10.90;99.90
11136;DHT22;5622;50.840;4.948;2023-11-21T12:32:42;10.90;99.90
11136;DHT22;5622;50.840;4.948;2023-11-21T12:35:11;10.90;99.90
11136;DHT22;5622;50.840;4.948;2023-11-21T12:37:39;10.90;99.90
11136;DHT22;5622;50.840;4.948;2023-11-21T12:40:07;10.90;99.90
11136;DHT22;5622;50.840;4.948;2023-11-21T12:42:37;10.90;99.90
11136;DHT22;5622;50.840;4.948;2023-11-21T12:45:19;11.00;99.90
11136;DHT22;5622;50.840;4.948;2023-11-21T12:47:49;10.90;99.90
11136;DHT22;5622;50.840;4.948;2023-11-21T12:50:20;10.90;99.90
11136;DHT22;5622;50.840;4.948;2023-11-21T12:52:51;10.90;99.90
11136;DHT22;5622;50.840;4.948;2023-11-21T12:55:20;10.90;99.90
11136;DHT22;5622;50.840;4.948;2023-11-21T12:57:49;11.00;99.90
11136;DHT22;5622;50.840;4.948;2023-11-21T13:00:18;10.90;99.90
11136;DHT22;5622;50.840;4.948;2023-11-21T13:02:54;10.90;99.90
11136;DHT22;5622;50.840;4.948;2023-11-21T13:05:28;11.00;99.90
11136;DHT22;5622;50.840;4.948;2023-11-21T13:07:57;11.00;99.90
11136;DHT22;5622;50.840;4.948;2023-11-21T13:10:26;11.00;99.90
11136;DHT22;5622;50.840;4.948;2023-11-21T13:12:57;11.00;99.90
11136;DHT22;5622;50.840;4.948;2023-11-21T13:15:28;11.10;99.90
11136;DHT22;5622;50.840;4.948;2023-11-21T13:17:57;11.10;99.90
11136;DHT22;5622;50.840;4.948;2023-11-21T13:20:26;11.10;99.90
11136;DHT22;5622;50.840;4.948;2023-11-21T13:22:56;11.10;99.90
11136;DHT22;5622;50.840;4.948;2023-11-21T13:25:25;11.20;99.90
11136;DHT22;5622;50.840;4.948;2023-11-21T13:27:53;11.10;99.90
11136;DHT22;5622;50.840;4.948;2023-11-21T13:30:22;11.10;99.90
11136;DHT22;5622;50.840;4.948;2023-11-21T13:32:53;11.20;99.90
11136;DHT22;5622;50.840;4.948;2023-11-21T13:35:23;11.20;99.90
11136;DHT22;5622;50.840;4.948;2023-11-21T13:38:04;11.20;99.90
11136;DHT22;5622;50.840;4.948;2023-11-21T13:40:32;11.20;99.90
11136;DHT22;5622;50.840;4.948;2023-11-21T13:43:03;11.10;99.90
11136;DHT22;5622;50.840;4.948;2023-11-21T13:45:30;11.10;99.90
11136;DHT22;5622;50.840;4.948;2023-11-21T13:47:57;11.10;99.90
11136;DHT22;5622;50.840;4.948;2023-11-21T13:50:25;11.10;99.90
11136;DHT22;5622;50.840;4.948;2023-11-21T13:52:59;11.10;99.90
11136;DHT22;5622;50.840;4.948;2023-11-21T13:55:30;11.20;99.90
11136;DHT22;5622;50.840;4.948;2023-11-21T13:57:57;11.10;99.90
11136;DHT22;5622;50.840;4.948;2023-11-21T14:00:24;11.20;99.90
11136;DHT22;5622;50.840;4.948;2023-11-21T14:03:10;11.10;99.90
11136;DHT22;5622;50.840;4.948;2023-11-21T14:05:44;11.10;99.90
11136;DHT22;5622;50.840;4.948;2023-11-21T14:08:19;11.10;99.90
11136;DHT22;5622;50.840;4.948;2023-11-21T14:10:47;11.10;99.90
11136;DHT22;5622;50.840;4.948;2023-11-21T14:13:21;11.10;99.90
11136;DHT22;5622;50.840;4.948;2023-11-21T14:15:49;11.10;99.90
11136;DHT22;5622;50.840;4.948;2023-11-21T14:18:20;11.10;99.90
11136;DHT22;5622;50.840;4.948;2023-11-21T14:20:57;11.10;99.90
11136;DHT22;5622;50.840;4.948;2023-11-21T14:23:25;11.10;99.90
11136;DHT22;5622;50.840;4.948;2023-11-21T14:25:54;11.10;99.90
11136;DHT22;5622;50.840;4.948;2023-11-21T14:28:22;11.10;99.90
11136;DHT22;5622;50.840;4.948;2023-11-21T14:30:51;11.00;99.90
11136;DHT22;5622;50.840;4.948;2023-11-21T14:33:19;11.00;99.90
11136;DHT22;5622;50.840;4.948;2023-11-21T14:35:46;11.10;99.90
11136;DHT22;5622;50.840;4.948;2023-11-21T14:38:13;11.10;99.90
11136;DHT22;5622;50.840;4.948;2023-11-21T14:40:43;11.10;99.90
11136;DHT22;5622;50.840;4.948;2023-11-21T14:43:10;11.10;99.90
11136;DHT22;5622;50.840;4.948;2023-11-21T14:45:38;11.10;99.90
11136;DHT22;5622;50.840;4.948;2023-11-21T14:48:05;11.10;99.90
11136;DHT22;5622;50.840;4.948;2023-11-21T14:50:42;11.10;99.90
11136;DHT22;5622;50.840;4.948;2023-11-21T14:53:31;11.10;99.90
11136;DHT22;5622;50.840;4.948;2023-11-21T14:56:10;11.10;99.90
11136;DHT22;5622;50.840;4.948;2023-11-21T14:58:36;11.10;99.90
11136;DHT22;5622;50.840;4.948;2023-11-21T15:01:05;11.10;99.90
11136;DHT22;5622;50.840;4.948;2023-11-21T15:03:31;11.00;99.90
11136;DHT22;5622;50.840;4.948;2023-11-21T15:06:15;11.10;99.90
11136;DHT22;5622;50.840;4.948;2023-11-21T15:08:56;11.00;99.90
11136;DHT22;5622;50.840;4.948;2023-11-21T15:11:56;11.00;99.90
11136;DHT22;5622;50.840;4.948;2023-11-21T15:14:28;11.10;99.90
11136;DHT22;5622;50.840;4.948;2023-11-21T15:17:00;11.10;99.90
11136;DHT22;5622;50.840;4.948;2023-11-21T15:19:28;11.00;99.90
11136;DHT22;5622;50.840;4.948;2023-11-21T15:21:57;11.00;99.90
11136;DHT22;5622;50.840;4.948;2023-11-21T15:24:27;11.10;99.90
11136;DHT22;5622;50.840;4.948;2023-11-21T15:26:56;11.00;99.90
11136;DHT22;5622;50.840;4.948;2023-11-21T15:29:23;11.00;99.90
11136;DHT22;5622;50.840;4.948;2023-11-21T15:31:51;11.00;99.90
11136;DHT22;5622;50.840;4.948;2023-11-21T15:34:22;11.00;99.90
11136;DHT22;5622;50.840;4.948;2023-11-21T15:36:49;11.00;99.90
11136;DHT22;5622;50.840;4.948;2023-11-21T15:39:19;11.00;99.90
11136;DHT22;5622;50.840;4.948;2023-11-21T15:41:51;11.00;99.90
11136;DHT22;5622;50.840;4.948;2023-11-21T15:44:22;11.00;99.90
11136;DHT22;5622;50.840;4.948;2023-11-21T15:46:50;11.00;99.90
11136;DHT22;5622;50.840;4.948;2023-11-21T15:49:17;11.00;99.90
11136;DHT22;5622;50.840;4.948;2023-11-21T15:51:48;11.00;99.90
11136;DHT22;5622;50.840;4.948;2023-11-21T15:54:20;11.00;99.90
11136;DHT22;5622;50.840;4.948;2023-11-21T15:56:47;11.00;99.90
11136;DHT22;5622;50.840;4.948;2023-11-21T15:59:15;11.00;99.90
11136;DHT22;5622;50.840;4.948;2023-11-21T16:01:43;11.00;99.90
11136;DHT22;5622;50.840;4.948;2023-11-21T16:04:13;11.00;99.90
11136;DHT22;5622;50.840;4.948;2023-11-21T16:06:42;10.90;99.90
11136;DHT22;5622;50.840;4.948;2023-11-21T16:09:10;11.00;99.90
11136;DHT22;5622;50.840;4.948;2023-11-21T16:11:50;10.90;99.90
11136;DHT22;5622;50.840;4.948;2023-11-21T16:14:22;11.00;99.90
11136;DHT22;5622;50.840;4.948;2023-11-21T16:16:54;11.00;99.90
11136;DHT22;5622;50.840;4.948;2023-11-21T16:19:21;10.90;99.90
11136;DHT22;5622;50.840;4.948;2023-11-21T16:21:49;11.00;99.90
11136;DHT22;5622;50.840;4.948;2023-11-21T16:24:16;11.00;99.90
11136;DHT22;5622;50.840;4.948;2023-11-21T16:26:43;10.90;99.90
11136;DHT22;5622;50.840;4.948;2023-11-21T16:29:11;10.90;99.90
11136;DHT22;5622;50.840;4.948;2023-11-21T16:31:38;11.00;99.90
11136;DHT22;5622;50.840;4.948;2023-11-21T16:34:13;10.90;99.90
11136;DHT22;5622;50.840;4.948;2023-11-21T16:36:41;11.00;99.90
11136;DHT22;5622;50.840;4.948;2023-11-21T16:39:10;11.00;99.90
11136;DHT22;5622;50.840;4.948;2023-11-21T16:41:38;11.00;99.90
11136;DHT22;5622;50.840;4.948;2023-11-21T16:44:06;11.00;99.90
11136;DHT22;5622;50.840;4.948;2023-11-21T16:46:44;11.00;99.90
11136;DHT22;5622;50.840;4.948;2023-11-21T16:49:14;10.90;99.90
11136;DHT22;5622;50.840;4.948;2023-11-21T16:51:41;10.90;99.90
11136;DHT22;5622;50.840;4.948;2023-11-21T16:54:09;10.90;99.90
11136;DHT22;5622;50.840;4.948;2023-11-21T16:56:36;10.90;99.90
11136;DHT22;5622;50.840;4.948;2023-11-21T16:59:04;10.90;99.90
11136;DHT22;5622;50.840;4.948;2023-11-21T17:01:31;10.90;99.90
11136;DHT22;5622;50.840;4.948;2023-11-21T17:03:58;10.90;99.90
11136;DHT22;5622;50.840;4.948;2023-11-21T17:06:27;10.90;99.90
11136;DHT22;5622;50.840;4.948;2023-11-21T17:08:56;10.90;99.90